sensor_id;sensor_type;location;lat;lon;timestamp;pressure;altitude;pressure_sealevel;temperature;humidity
9855;BME280;4966;48.112;9.282;2022-07-18T00:01:31;95481.41;;;14.14;63.67
9855;BME280;4966;48.112;9.282;2022-07-18T00:03:58;95477.75;;;14.10;64.15
9855;BME280;4966;48.112;9.282;2022-07-18T00:06:23;95478.66;;;14.01;64.37
9855;BME280;4966;48.112;9.282;2022-07-18T00:08:48;95478.75;;;14.05;64.11
9855;BME280;4966;48.112;9.282;2022-07-18T00:11:14;95482.88;;;14.11;63.62
9855;BME280;4966;48.112;9.282;2022-07-18T00:13:39;95480.22;;;13.78;64.71
9855;BME280;4966;48.112;9.282;2022-07-18T00:16:05;95482.22;;;13.56;65.52
9855;BME280;4966;48.112;9.282;2022-07-18T00:18:30;95475.75;;;13.73;64.98
9855;BME280;4966;48.112;9.282;2022-07-18T00:20:56;95484.25;;;13.59;65.47
9855;BME280;4966;48.112;9.282;2022-07-18T00:23:21;95476.44;;;13.70;64.79
9855;BME280;4966;48.112;9.282;2022-07-18T00:25:47;95473.50;;;13.75;64.53
9855;BME280;4966;48.112;9.282;2022-07-18T00:28:12;95480.41;;;13.60;65.16
9855;BME280;4966;48.112;9.282;2022-07-18T00:30:39;95478.53;;;13.52;65.43
9855;BME280;4966;48.112;9.282;2022-07-18T00:33:04;95483.69;;;13.54;65.44
9855;BME280;4966;48.112;9.282;2022-07-18T00:35:29;95474.59;;;13.62;65.34
9855;BME280;4966;48.112;9.282;2022-07-18T00:37:55;95478.53;;;13.52;65.36
9855;BME280;4966;48.112;9.282;2022-07-18T00:40:20;95476.41;;;13.58;64.98
9855;BME280;4966;48.112;9.282;2022-07-18T00:42:46;95477.03;;;13.43;65.58
9855;BME280;4966;48.112;9.282;2022-07-18T00:45:11;95484.19;;;13.35;65.92
9855;BME280;4966;48.112;9.282;2022-07-18T00:47:37;95483.75;;;13.45;65.85
9855;BME280;4966;48.112;9.282;2022-07-18T00:50:02;95481.78;;;13.33;65.81
9855;BME280;4966;48.112;9.282;2022-07-18T00:52:30;95492.78;;;13.25;66.26
9855;BME280;4966;48.112;9.282;2022-07-18T00:54:56;95493.44;;;13.43;65.64
9855;BME280;4966;48.112;9.282;2022-07-18T00:57:21;95492.44;;;13.47;65.34
9855;BME280;4966;48.112;9.282;2022-07-18T00:59:47;95487.69;;;13.14;66.63
9855;BME280;4966;48.112;9.282;2022-07-18T01:02:32;95482.31;;;13.06;66.84
9855;BME280;4966;48.112;9.282;2022-07-18T01:04:57;95486.38;;;12.99;67.17
9855;BME280;4966;48.112;9.282;2022-07-18T01:07:22;95482.59;;;13.13;66.92
9855;BME280;4966;48.112;9.282;2022-07-18T01:09:48;95492.47;;;13.05;66.96
9855;BME280;4966;48.112;9.282;2022-07-18T01:12:14;95490.78;;;13.13;66.76
9855;BME280;4966;48.112;9.282;2022-07-18T01:14:40;95492.38;;;13.14;66.32
9855;BME280;4966;48.112;9.282;2022-07-18T01:17:16;95492.31;;;12.81;67.66
9855;BME280;4966;48.112;9.282;2022-07-18T01:19:42;95490.13;;;12.74;68.06
9855;BME280;4966;48.112;9.282;2022-07-18T01:22:08;95486.44;;;12.70;68.25
9855;BME280;4966;48.112;9.282;2022-07-18T01:24:33;95482.03;;;12.56;68.79
9855;BME280;4966;48.112;9.282;2022-07-18T01:26:59;95487.66;;;12.81;68.13
9855;BME280;4966;48.112;9.282;2022-07-18T01:29:25;95490.56;;;12.76;68.19
9855;BME280;4966;48.112;9.282;2022-07-18T01:31:50;95476.13;;;12.75;68.14
9855;BME280;4966;48.112;9.282;2022-07-18T01:34:21;95488.94;;;12.84;68.11
9855;BME280;4966;48.112;9.282;2022-07-18T01:36:47;95482.09;;;12.69;68.60
9855;BME280;4966;48.112;9.282;2022-07-18T01:39:12;95476.38;;;12.62;68.97
9855;BME280;4966;48.112;9.282;2022-07-18T01:41:38;95479.78;;;12.80;68.00
9855;BME280;4966;48.112;9.282;2022-07-18T01:44:03;95476.00;;;12.72;68.14
9855;BME280;4966;48.112;9.282;2022-07-18T01:46:29;95475.44;;;12.58;68.62
9855;BME280;4966;48.112;9.282;2022-07-18T01:48:55;95475.44;;;12.58;68.92
9855;BME280;4966;48.112;9.282;2022-07-18T01:51:20;95485.84;;;12.64;68.49
9855;BME280;4966;48.112;9.282;2022-07-18T01:53:54;95482.44;;;12.67;68.41
9855;BME280;4966;48.112;9.282;2022-07-18T01:56:20;95483.69;;;12.49;68.87
9855;BME280;4966;48.112;9.282;2022-07-18T01:58:46;95486.88;;;12.51;68.66
9855;BME280;4966;48.112;9.282;2022-07-18T02:01:12;95485.81;;;12.43;69.21
9855;BME280;4966;48.112;9.282;2022-07-18T02:03:37;95492.19;;;12.47;69.03
9855;BME280;4966;48.112;9.282;2022-07-18T02:06:02;95479.97;;;12.53;68.88
9855;BME280;4966;48.112;9.282;2022-07-18T02:08:28;95481.53;;;12.54;68.90
9855;BME280;4966;48.112;9.282;2022-07-18T02:10:53;95489.94;;;12.49;68.78
9855;BME280;4966;48.112;9.282;2022-07-18T02:13:19;95486.34;;;11.98;70.50
9855;BME280;4966;48.112;9.282;2022-07-18T02:15:45;95494.38;;;11.86;71.24
9855;BME280;4966;48.112;9.282;2022-07-18T02:18:11;95491.72;;;12.16;70.33
9855;BME280;4966;48.112;9.282;2022-07-18T02:20:36;95491.50;;;12.29;70.02
9855;BME280;4966;48.112;9.282;2022-07-18T02:23:03;95488.66;;;12.17;70.28
9855;BME280;4966;48.112;9.282;2022-07-18T02:25:29;95487.69;;;12.22;70.11
9855;BME280;4966;48.112;9.282;2022-07-18T02:27:54;95492.84;;;12.15;70.43
9855;BME280;4966;48.112;9.282;2022-07-18T02:30:20;95489.03;;;12.07;70.70
9855;BME280;4966;48.112;9.282;2022-07-18T02:32:46;95492.75;;;12.02;70.83
9855;BME280;4966;48.112;9.282;2022-07-18T02:35:12;95481.03;;;12.02;70.73
9855;BME280;4966;48.112;9.282;2022-07-18T02:37:38;95481.00;;;12.10;70.30
9855;BME280;4966;48.112;9.282;2022-07-18T02:40:10;95490.84;;;11.94;70.78
9855;BME280;4966;48.112;9.282;2022-07-18T02:42:36;95483.78;;;11.93;70.70
9855;BME280;4966;48.112;9.282;2022-07-18T02:45:03;95483.44;;;12.03;70.40
9855;BME280;4966;48.112;9.282;2022-07-18T02:47:29;95487.44;;;12.06;70.27
9855;BME280;4966;48.112;9.282;2022-07-18T02:49:54;95486.91;;;12.12;69.88
9855;BME280;4966;48.112;9.282;2022-07-18T02:52:20;95485.56;;;11.89;70.91
9855;BME280;4966;48.112;9.282;2022-07-18T02:54:46;95492.00;;;11.76;71.43
9855;BME280;4966;48.112;9.282;2022-07-18T02:57:11;95483.34;;;11.74;71.53
9855;BME280;4966;48.112;9.282;2022-07-18T02:59:37;95486.72;;;11.88;70.93
9855;BME280;4966;48.112;9.282;2022-07-18T03:02:03;95493.78;;;11.71;71.75
9855;BME280;4966;48.112;9.282;2022-07-18T03:04:28;95487.69;;;11.66;72.19
9855;BME280;4966;48.112;9.282;2022-07-18T03:06:54;95488.19;;;11.59;72.37
9855;BME280;4966;48.112;9.282;2022-07-18T03:09:20;95492.97;;;11.71;71.69
9855;BME280;4966;48.112;9.282;2022-07-18T03:11:45;95499.22;;;11.71;71.72
9855;BME280;4966;48.112;9.282;2022-07-18T03:14:11;95497.16;;;11.68;72.03
9855;BME280;4966;48.112;9.282;2022-07-18T03:16:36;95489.78;;;11.60;72.38
9855;BME280;4966;48.112;9.282;2022-07-18T03:19:02;95490.41;;;11.66;72.17
9855;BME280;4966;48.112;9.282;2022-07-18T03:21:27;95491.25;;;11.58;72.47
9855;BME280;4966;48.112;9.282;2022-07-18T03:23:54;95499.28;;;11.54;72.58
9855;BME280;4966;48.112;9.282;2022-07-18T03:26:19;95491.06;;;11.63;72.14
9855;BME280;4966;48.112;9.282;2022-07-18T03:28:45;95494.25;;;11.74;71.58
9855;BME280;4966;48.112;9.282;2022-07-18T03:31:10;95496.34;;;11.68;71.37
9855;BME280;4966;48.112;9.282;2022-07-18T03:33:37;95500.81;;;11.73;71.16
9855;BME280;4966;48.112;9.282;2022-07-18T03:36:03;95501.97;;;11.71;71.45
9855;BME280;4966;48.112;9.282;2022-07-18T03:38:28;95497.66;;;11.62;71.21
9855;BME280;4966;48.112;9.282;2022-07-18T03:40:53;95495.47;;;11.38;72.59
9855;BME280;4966;48.112;9.282;2022-07-18T03:43:19;95496.91;;;11.35;72.83
9855;BME280;4966;48.112;9.282;2022-07-18T03:45:44;95495.63;;;11.24;73.49
9855;BME280;4966;48.112;9.282;2022-07-18T03:48:10;95494.34;;;11.30;72.89
9855;BME280;4966;48.112;9.282;2022-07-18T03:50:35;95501.72;;;11.21;73.51
9855;BME280;4966;48.112;9.282;2022-07-18T03:53:00;95501.56;;;11.09;74.30
9855;BME280;4966;48.112;9.282;2022-07-18T03:55:26;95499.31;;;11.28;73.39
9855;BME280;4966;48.112;9.282;2022-07-18T03:57:51;95494.63;;;11.37;72.66
9855;BME280;4966;48.112;9.282;2022-07-18T04:00:17;95506.97;;;11.35;72.96
9855;BME280;4966;48.112;9.282;2022-07-18T04:02:45;95499.13;;;11.42;72.69
9855;BME280;4966;48.112;9.282;2022-07-18T04:05:12;95502.31;;;11.44;72.41
9855;BME280;4966;48.112;9.282;2022-07-18T04:07:39;95502.94;;;11.58;71.80
9855;BME280;4966;48.112;9.282;2022-07-18T04:10:05;95509.34;;;11.62;71.71
9855;BME280;4966;48.112;9.282;2022-07-18T04:12:31;95505.47;;;11.63;71.49
9855;BME280;4966;48.112;9.282;2022-07-18T04:14:57;95502.28;;;11.70;71.22
9855;BME280;4966;48.112;9.282;2022-07-18T04:17:23;95515.41;;;11.77;70.91
9855;BME280;4966;48.112;9.282;2022-07-18T04:19:48;95514.63;;;11.59;71.81
9855;BME280;4966;48.112;9.282;2022-07-18T04:22:14;95511.22;;;11.79;70.81
9855;BME280;4966;48.112;9.282;2022-07-18T04:24:39;95516.97;;;11.86;70.89
9855;BME280;4966;48.112;9.282;2022-07-18T04:27:05;95506.88;;;11.96;70.55
9855;BME280;4966;48.112;9.282;2022-07-18T04:29:30;95502.53;;;11.95;70.61
9855;BME280;4966;48.112;9.282;2022-07-18T04:31:57;95503.50;;;11.99;70.61
9855;BME280;4966;48.112;9.282;2022-07-18T04:34:23;95507.97;;;12.03;70.50
9855;BME280;4966;48.112;9.282;2022-07-18T04:36:48;95499.41;;;12.13;70.35
9855;BME280;4966;48.112;9.282;2022-07-18T04:39:13;95500.19;;;12.23;70.26
9855;BME280;4966;48.112;9.282;2022-07-18T04:41:39;95505.25;;;12.33;70.05
9855;BME280;4966;48.112;9.282;2022-07-18T04:44:04;95499.56;;;12.47;69.91
9855;BME280;4966;48.112;9.282;2022-07-18T04:46:30;95504.47;;;12.62;69.47
9855;BME280;4966;48.112;9.282;2022-07-18T04:48:55;95499.31;;;12.69;69.19
9855;BME280;4966;48.112;9.282;2022-07-18T04:51:21;95498.22;;;12.83;68.67
9855;BME280;4966;48.112;9.282;2022-07-18T04:53:46;95495.44;;;12.91;68.41
9855;BME280;4966;48.112;9.282;2022-07-18T04:56:11;95499.50;;;13.06;67.92
9855;BME280;4966;48.112;9.282;2022-07-18T04:58:37;95498.38;;;13.28;66.55
9855;BME280;4966;48.112;9.282;2022-07-18T05:01:03;95495.59;;;13.70;66.38
9855;BME280;4966;48.112;9.282;2022-07-18T05:03:28;95488.69;;;14.22;64.93
9855;BME280;4966;48.112;9.282;2022-07-18T05:05:54;95494.44;;;14.66;63.46
9855;BME280;4966;48.112;9.282;2022-07-18T05:08:19;95491.41;;;14.96;62.73
9855;BME280;4966;48.112;9.282;2022-07-18T05:10:44;95489.66;;;15.16;61.95
9855;BME280;4966;48.112;9.282;2022-07-18T05:13:10;95488.91;;;15.31;61.33
9855;BME280;4966;48.112;9.282;2022-07-18T05:15:36;95488.16;;;15.46;61.00
9855;BME280;4966;48.112;9.282;2022-07-18T05:18:01;95489.06;;;15.50;60.99
9855;BME280;4966;48.112;9.282;2022-07-18T05:20:27;95495.66;;;15.62;60.98
9855;BME280;4966;48.112;9.282;2022-07-18T05:22:53;95488.63;;;15.77;60.30
9855;BME280;4966;48.112;9.282;2022-07-18T05:25:20;95489.16;;;15.82;60.57
9855;BME280;4966;48.112;9.282;2022-07-18T05:27:48;95487.84;;;15.92;60.75
9855;BME280;4966;48.112;9.282;2022-07-18T05:30:13;95484.03;;;15.97;60.10
9855;BME280;4966;48.112;9.282;2022-07-18T05:32:40;95481.84;;;16.02;61.31
9855;BME280;4966;48.112;9.282;2022-07-18T05:35:07;95492.03;;;16.17;60.62
9855;BME280;4966;48.112;9.282;2022-07-18T05:37:33;95481.31;;;16.28;60.78
9855;BME280;4966;48.112;9.282;2022-07-18T05:40:02;95473.84;;;16.45;60.84
9855;BME280;4966;48.112;9.282;2022-07-18T05:42:27;95468.00;;;16.62;60.26
9855;BME280;4966;48.112;9.282;2022-07-18T05:44:53;95473.28;;;16.71;59.79
9855;BME280;4966;48.112;9.282;2022-07-18T05:47:18;95471.31;;;16.87;58.51
9855;BME280;4966;48.112;9.282;2022-07-18T05:49:43;95480.25;;;17.00;58.67
9855;BME280;4966;48.112;9.282;2022-07-18T05:52:09;95476.56;;;17.12;58.20
9855;BME280;4966;48.112;9.282;2022-07-18T05:54:34;95474.50;;;17.25;57.51
9855;BME280;4966;48.112;9.282;2022-07-18T05:57:00;95487.00;;;17.41;57.68
9855;BME280;4966;48.112;9.282;2022-07-18T05:59:25;95475.66;;;17.43;58.27
9855;BME280;4966;48.112;9.282;2022-07-18T06:01:50;95479.09;;;17.59;58.55
9855;BME280;4966;48.112;9.282;2022-07-18T06:04:16;95476.47;;;17.67;57.10
9855;BME280;4966;48.112;9.282;2022-07-18T06:06:41;95482.72;;;17.63;56.90
9855;BME280;4966;48.112;9.282;2022-07-18T06:09:08;95480.53;;;17.73;56.75
9855;BME280;4966;48.112;9.282;2022-07-18T06:11:34;95471.41;;;17.88;56.92
9855;BME280;4966;48.112;9.282;2022-07-18T06:13:59;95476.25;;;17.95;56.45
9855;BME280;4966;48.112;9.282;2022-07-18T06:16:27;95478.94;;;18.14;56.13
9855;BME280;4966;48.112;9.282;2022-07-18T06:18:53;95469.34;;;18.27;55.07
9855;BME280;4966;48.112;9.282;2022-07-18T06:21:18;95478.94;;;18.37;54.57
9855;BME280;4966;48.112;9.282;2022-07-18T06:23:43;95476.19;;;18.14;55.75
9855;BME280;4966;48.112;9.282;2022-07-18T06:26:09;95476.25;;;18.41;55.90
9855;BME280;4966;48.112;9.282;2022-07-18T06:28:34;95475.91;;;18.69;56.29
9855;BME280;4966;48.112;9.282;2022-07-18T06:31:00;95469.97;;;18.94;55.59
9855;BME280;4966;48.112;9.282;2022-07-18T06:33:26;95472.22;;;19.11;54.98
9855;BME280;4966;48.112;9.282;2022-07-18T06:35:51;95469.25;;;19.27;54.93
9855;BME280;4966;48.112;9.282;2022-07-18T06:38:17;95478.53;;;19.45;54.37
9855;BME280;4966;48.112;9.282;2022-07-18T06:40:43;95480.50;;;19.45;53.70
9855;BME280;4966;48.112;9.282;2022-07-18T06:43:08;95477.78;;;19.48;52.37
9855;BME280;4966;48.112;9.282;2022-07-18T06:45:34;95475.72;;;19.72;51.18
9855;BME280;4966;48.112;9.282;2022-07-18T06:48:00;95466.09;;;19.92;50.47
9855;BME280;4966;48.112;9.282;2022-07-18T06:50:25;95476.50;;;20.10;51.45
9855;BME280;4966;48.112;9.282;2022-07-18T06:52:51;95467.34;;;20.43;51.15
9855;BME280;4966;48.112;9.282;2022-07-18T06:55:17;95470.34;;;20.27;47.16
9855;BME280;4966;48.112;9.282;2022-07-18T06:57:43;95468.91;;;20.40;48.40
9855;BME280;4966;48.112;9.282;2022-07-18T07:00:10;95467.50;;;20.61;50.09
9855;BME280;4966;48.112;9.282;2022-07-18T07:02:44;95470.41;;;20.79;48.63
9855;BME280;4966;48.112;9.282;2022-07-18T07:05:10;95471.31;;;20.97;45.96
9855;BME280;4966;48.112;9.282;2022-07-18T07:07:36;95479.69;;;21.12;44.91
9855;BME280;4966;48.112;9.282;2022-07-18T07:10:02;95477.41;;;21.24;46.48
9855;BME280;4966;48.112;9.282;2022-07-18T07:12:28;95478.31;;;21.47;45.93
9855;BME280;4966;48.112;9.282;2022-07-18T07:14:53;95474.34;;;21.48;45.45
9855;BME280;4966;48.112;9.282;2022-07-18T07:17:19;95470.94;;;21.79;43.94
9855;BME280;4966;48.112;9.282;2022-07-18T07:19:44;95476.47;;;21.90;42.55
9855;BME280;4966;48.112;9.282;2022-07-18T07:22:10;95464.25;;;22.09;42.62
9855;BME280;4966;48.112;9.282;2022-07-18T07:24:36;95471.44;;;22.35;41.35
9855;BME280;4966;48.112;9.282;2022-07-18T07:27:03;95469.47;;;22.43;39.48
9855;BME280;4966;48.112;9.282;2022-07-18T07:29:29;95473.44;;;22.70;38.87
9855;BME280;4966;48.112;9.282;2022-07-18T07:31:54;95473.03;;;23.04;38.25
9855;BME280;4966;48.112;9.282;2022-07-18T07:34:20;95475.78;;;22.93;38.82
9855;BME280;4966;48.112;9.282;2022-07-18T07:36:45;95473.72;;;23.33;40.46
9855;BME280;4966;48.112;9.282;2022-07-18T07:39:11;95478.38;;;23.65;38.92
9855;BME280;4966;48.112;9.282;2022-07-18T07:41:36;95479.19;;;23.62;36.60
9855;BME280;4966;48.112;9.282;2022-07-18T07:44:01;95477.91;;;23.85;37.65
9855;BME280;4966;48.112;9.282;2022-07-18T07:46:27;95467.66;;;23.74;35.92
9855;BME280;4966;48.112;9.282;2022-07-18T07:48:53;95463.28;;;23.70;35.68
9855;BME280;4966;48.112;9.282;2022-07-18T07:51:18;95472.34;;;23.88;35.84
9855;BME280;4966;48.112;9.282;2022-07-18T07:53:44;95467.66;;;23.78;36.39
9855;BME280;4966;48.112;9.282;2022-07-18T07:56:09;95469.41;;;24.17;36.94
9855;BME280;4966;48.112;9.282;2022-07-18T07:58:36;95462.06;;;24.45;36.39
9855;BME280;4966;48.112;9.282;2022-07-18T08:01:01;95468.81;;;24.44;35.49
9855;BME280;4966;48.112;9.282;2022-07-18T08:03:26;95467.53;;;24.59;34.58
9855;BME280;4966;48.112;9.282;2022-07-18T08:05:52;95468.50;;;24.87;35.10
9855;BME280;4966;48.112;9.282;2022-07-18T08:08:18;95465.38;;;24.77;34.69
9855;BME280;4966;48.112;9.282;2022-07-18T08:10:44;95460.94;;;24.87;34.04
9855;BME280;4966;48.112;9.282;2022-07-18T08:13:11;95465.81;;;25.14;32.29
9855;BME280;4966;48.112;9.282;2022-07-18T08:15:37;95463.69;;;25.32;33.16
9855;BME280;4966;48.112;9.282;2022-07-18T08:18:03;95455.47;;;25.56;31.21
9855;BME280;4966;48.112;9.282;2022-07-18T08:20:29;95455.47;;;25.56;31.06
9855;BME280;4966;48.112;9.282;2022-07-18T08:23:02;95453.16;;;25.81;30.06
9855;BME280;4966;48.112;9.282;2022-07-18T08:25:29;95458.13;;;25.97;30.95
9855;BME280;4966;48.112;9.282;2022-07-18T08:27:56;95451.84;;;26.20;30.15
9855;BME280;4966;48.112;9.282;2022-07-18T08:30:21;95457.50;;;26.40;29.36
9855;BME280;4966;48.112;9.282;2022-07-18T08:32:47;95455.25;;;26.31;29.03
9855;BME280;4966;48.112;9.282;2022-07-18T08:35:13;95463.63;;;26.31;29.10
9855;BME280;4966;48.112;9.282;2022-07-18T08:37:38;95457.13;;;26.38;29.07
9855;BME280;4966;48.112;9.282;2022-07-18T08:40:04;95461.56;;;26.63;28.65
9855;BME280;4966;48.112;9.282;2022-07-18T08:42:32;95448.91;;;26.82;27.90
9855;BME280;4966;48.112;9.282;2022-07-18T08:44:58;95453.75;;;26.78;26.88
9855;BME280;4966;48.112;9.282;2022-07-18T08:47:23;95454.53;;;27.02;27.02
9855;BME280;4966;48.112;9.282;2022-07-18T08:49:52;95459.91;;;27.12;27.67
9855;BME280;4966;48.112;9.282;2022-07-18T08:52:19;95450.69;;;27.15;27.35
9855;BME280;4966;48.112;9.282;2022-07-18T08:54:45;95454.75;;;27.11;26.91
9855;BME280;4966;48.112;9.282;2022-07-18T08:57:11;95448.22;;;27.17;27.17
9855;BME280;4966;48.112;9.282;2022-07-18T08:59:37;95451.75;;;26.78;30.49
9855;BME280;4966;48.112;9.282;2022-07-18T09:02:02;95451.81;;;27.42;29.02
9855;BME280;4966;48.112;9.282;2022-07-18T09:04:38;95443.00;;;27.43;26.04
9855;BME280;4966;48.112;9.282;2022-07-18T09:07:05;95448.44;;;27.07;27.73
9855;BME280;4966;48.112;9.282;2022-07-18T09:09:34;95444.78;;;27.53;27.45
9855;BME280;4966;48.112;9.282;2022-07-18T09:12:02;95439.59;;;27.32;27.32
9855;BME280;4966;48.112;9.282;2022-07-18T09:17:06;95444.09;;;26.82;27.04
9855;BME280;4966;48.112;9.282;2022-07-18T09:19:32;95445.28;;;27.05;26.51
9855;BME280;4966;48.112;9.282;2022-07-18T09:22:20;95445.09;;;27.15;26.20
9855;BME280;4966;48.112;9.282;2022-07-18T09:32:42;95438.97;;;28.20;25.74
9855;BME280;4966;48.112;9.282;2022-07-18T09:35:10;95440.47;;;28.25;25.49
9855;BME280;4966;48.112;9.282;2022-07-18T09:37:36;95441.28;;;28.26;24.56
9855;BME280;4966;48.112;9.282;2022-07-18T09:40:21;95435.75;;;27.86;24.91
9855;BME280;4966;48.112;9.282;2022-07-18T09:42:59;95439.88;;;28.34;24.67
9855;BME280;4966;48.112;9.282;2022-07-18T09:45:31;95437.13;;;28.50;24.76
9855;BME280;4966;48.112;9.282;2022-07-18T09:47:59;95439.34;;;28.39;23.32
9855;BME280;4966;48.112;9.282;2022-07-18T09:51:11;95439.13;;;28.50;22.77
9855;BME280;4966;48.112;9.282;2022-07-18T09:53:15;95436.28;;;28.99;23.09
9855;BME280;4966;48.112;9.282;2022-07-18T09:55:47;95434.03;;;28.94;23.98
9855;BME280;4966;48.112;9.282;2022-07-18T09:58:16;95439.47;;;28.84;23.81
9855;BME280;4966;48.112;9.282;2022-07-18T10:00:42;95441.81;;;29.02;23.13
9855;BME280;4966;48.112;9.282;2022-07-18T10:03:08;95440.81;;;29.25;22.98
9855;BME280;4966;48.112;9.282;2022-07-18T10:05:36;95438.50;;;29.37;24.54
9855;BME280;4966;48.112;9.282;2022-07-18T10:08:05;95432.13;;;29.07;23.56
9855;BME280;4966;48.112;9.282;2022-07-18T10:10:31;95438.63;;;29.33;23.87
9855;BME280;4966;48.112;9.282;2022-07-18T10:12:58;95436.66;;;29.59;23.25
9855;BME280;4966;48.112;9.282;2022-07-18T10:15:27;95438.13;;;29.64;22.66
9855;BME280;4966;48.112;9.282;2022-07-18T10:17:54;95437.31;;;29.67;22.63
9855;BME280;4966;48.112;9.282;2022-07-18T10:20:50;95427.56;;;29.84;22.77
9855;BME280;4966;48.112;9.282;2022-07-18T10:26:19;95432.78;;;30.24;21.28
9855;BME280;4966;48.112;9.282;2022-07-18T10:31:38;95435.81;;;30.17;21.54
9855;BME280;4966;48.112;9.282;2022-07-18T10:36:36;95436.25;;;30.16;20.82
9855;BME280;4966;48.112;9.282;2022-07-18T10:39:16;95430.53;;;30.45;21.62
9855;BME280;4966;48.112;9.282;2022-07-18T11:00:16;95421.53;;;30.76;19.16
9855;BME280;4966;48.112;9.282;2022-07-18T11:02:46;95421.72;;;30.81;19.29
9855;BME280;4966;48.112;9.282;2022-07-18T11:16:15;95409.72;;;34.89;16.69
9855;BME280;4966;48.112;9.282;2022-07-18T11:23:44;95410.16;;;37.61;14.35
9855;BME280;4966;48.112;9.282;2022-07-18T11:26:20;95404.31;;;38.54;14.03
9855;BME280;4966;48.112;9.282;2022-07-18T11:28:46;95400.00;;;39.73;12.83
9855;BME280;4966;48.112;9.282;2022-07-18T11:31:14;95398.28;;;41.58;12.30
9855;BME280;4966;48.112;9.282;2022-07-18T11:33:44;95394.53;;;42.52;10.70
9855;BME280;4966;48.112;9.282;2022-07-18T11:36:14;95393.91;;;41.98;10.84
9855;BME280;4966;48.112;9.282;2022-07-18T11:38:48;95388.50;;;42.85;9.43
9855;BME280;4966;48.112;9.282;2022-07-18T11:41:15;95385.81;;;38.70;12.42
9855;BME280;4966;48.112;9.282;2022-07-18T11:43:43;95378.81;;;40.19;11.93
9855;BME280;4966;48.112;9.282;2022-07-18T11:46:10;95373.69;;;42.57;10.43
9855;BME280;4966;48.112;9.282;2022-07-18T11:48:37;95378.84;;;42.88;10.32
9855;BME280;4966;48.112;9.282;2022-07-18T11:51:15;95374.19;;;40.27;11.34
9855;BME280;4966;48.112;9.282;2022-07-18T11:53:49;95379.22;;;39.50;11.42
9855;BME280;4966;48.112;9.282;2022-07-18T11:56:16;95370.78;;;40.63;10.51
9855;BME280;4966;48.112;9.282;2022-07-18T11:58:43;95367.50;;;41.81;9.54
9855;BME280;4966;48.112;9.282;2022-07-18T12:01:09;95367.38;;;42.03;8.91
9855;BME280;4966;48.112;9.282;2022-07-18T12:03:43;95363.63;;;42.14;9.62
9855;BME280;4966;48.112;9.282;2022-07-18T12:06:23;95356.38;;;42.13;9.05
9855;BME280;4966;48.112;9.282;2022-07-18T12:08:50;95368.88;;;42.40;9.70
9855;BME280;4966;48.112;9.282;2022-07-18T12:19:07;95353.91;;;42.83;9.43
9855;BME280;4966;48.112;9.282;2022-07-18T12:21:42;95353.97;;;43.02;8.32
9855;BME280;4966;48.112;9.282;2022-07-18T12:26:43;95346.28;;;44.70;8.06
9855;BME280;4966;48.112;9.282;2022-07-18T12:29:09;95344.00;;;45.35;8.35
9855;BME280;4966;48.112;9.282;2022-07-18T12:31:43;95337.53;;;45.21;8.12
9855;BME280;4966;48.112;9.282;2022-07-18T12:34:18;95344.56;;;45.33;7.12
9855;BME280;4966;48.112;9.282;2022-07-18T12:36:56;95349.38;;;45.65;7.44
9855;BME280;4966;48.112;9.282;2022-07-18T12:39:32;95340.75;;;43.94;9.16
9855;BME280;4966;48.112;9.282;2022-07-18T12:41:59;95343.41;;;41.71;9.71
9855;BME280;4966;48.112;9.282;2022-07-18T12:44:28;95338.88;;;42.53;10.14
9855;BME280;4966;48.112;9.282;2022-07-18T12:46:54;95340.63;;;44.05;8.91
9855;BME280;4966;48.112;9.282;2022-07-18T12:49:21;95335.50;;;44.76;7.71
9855;BME280;4966;48.112;9.282;2022-07-18T12:51:46;95330.84;;;44.59;9.25
9855;BME280;4966;48.112;9.282;2022-07-18T12:54:13;95333.13;;;43.45;8.86
9855;BME280;4966;48.112;9.282;2022-07-18T12:56:39;95337.34;;;44.60;8.67
9855;BME280;4966;48.112;9.282;2022-07-18T12:59:05;95321.44;;;44.46;8.23
9855;BME280;4966;48.112;9.282;2022-07-18T13:01:31;95335.75;;;45.05;7.12
9855;BME280;4966;48.112;9.282;2022-07-18T13:03:57;95332.50;;;45.82;7.09
9855;BME280;4966;48.112;9.282;2022-07-18T13:06:22;95327.25;;;45.94;7.52
9855;BME280;4966;48.112;9.282;2022-07-18T13:08:48;95329.53;;;46.09;7.55
9855;BME280;4966;48.112;9.282;2022-07-18T13:11:13;95321.59;;;47.22;6.50
9855;BME280;4966;48.112;9.282;2022-07-18T13:13:39;95320.66;;;46.70;6.91
9855;BME280;4966;48.112;9.282;2022-07-18T13:16:05;95327.47;;;46.59;7.25
9855;BME280;4966;48.112;9.282;2022-07-18T13:18:30;95318.66;;;45.60;7.12
9855;BME280;4966;48.112;9.282;2022-07-18T13:20:55;95323.06;;;46.16;6.85
9855;BME280;4966;48.112;9.282;2022-07-18T13:23:21;95311.88;;;44.11;8.21
9855;BME280;4966;48.112;9.282;2022-07-18T13:25:46;95323.28;;;45.63;7.76
9855;BME280;4966;48.112;9.282;2022-07-18T13:28:12;95307.97;;;47.30;7.13
9855;BME280;4966;48.112;9.282;2022-07-18T13:30:37;95315.84;;;46.94;7.06
9855;BME280;4966;48.112;9.282;2022-07-18T13:33:06;95323.78;;;47.89;7.05
9855;BME280;4966;48.112;9.282;2022-07-18T13:35:32;95309.63;;;48.60;6.09
9855;BME280;4966;48.112;9.282;2022-07-18T13:37:58;95305.44;;;47.71;6.76
9855;BME280;4966;48.112;9.282;2022-07-18T13:40:23;95305.38;;;48.23;6.56
9855;BME280;4966;48.112;9.282;2022-07-18T13:42:49;95302.50;;;48.30;6.15
9855;BME280;4966;48.112;9.282;2022-07-18T13:45:14;95295.81;;;49.30;5.31
9855;BME280;4966;48.112;9.282;2022-07-18T13:47:40;95302.47;;;48.00;5.95
9855;BME280;4966;48.112;9.282;2022-07-18T13:50:08;95286.31;;;48.20;5.79
9855;BME280;4966;48.112;9.282;2022-07-18T13:52:33;95297.53;;;47.12;5.79
9855;BME280;4966;48.112;9.282;2022-07-18T13:54:59;95295.50;;;47.80;6.61
9855;BME280;4966;48.112;9.282;2022-07-18T13:57:25;95277.13;;;50.29;4.84
9855;BME280;4966;48.112;9.282;2022-07-18T13:59:50;95278.66;;;50.30;5.25
9855;BME280;4966;48.112;9.282;2022-07-18T14:02:16;95282.81;;;48.90;5.28
9855;BME280;4966;48.112;9.282;2022-07-18T14:04:42;95282.88;;;48.21;5.71
9855;BME280;4966;48.112;9.282;2022-07-18T14:07:07;95281.72;;;48.40;6.38
9855;BME280;4966;48.112;9.282;2022-07-18T14:09:33;95283.44;;;48.73;6.49
9855;BME280;4966;48.112;9.282;2022-07-18T14:11:58;95279.59;;;47.94;6.19
9855;BME280;4966;48.112;9.282;2022-07-18T14:14:24;95280.13;;;47.33;6.26
9855;BME280;4966;48.112;9.282;2022-07-18T14:16:49;95278.03;;;46.97;5.97
9855;BME280;4966;48.112;9.282;2022-07-18T14:19:16;95276.47;;;47.84;5.09
9855;BME280;4966;48.112;9.282;2022-07-18T14:21:45;95271.31;;;48.67;5.18
9855;BME280;4966;48.112;9.282;2022-07-18T14:24:10;95267.09;;;48.45;5.79
9855;BME280;4966;48.112;9.282;2022-07-18T14:26:35;95266.25;;;48.91;5.52